QatarFixed distanceIAU Bronze
IAU 50km WC Doha
11 Nov2016
Distance
50km
Finishers
5029 men21 women
Winning time
2:54:02h
Median pace
13.98km/h
Pace distribution
50 finishers · 8.67–17.24 km/h · mean 14.10
Every finisher ran the same 50 km course, so these paces are directly comparable.
Histogram of finisher pace. 50 finishers ranged from 8.67 to 17.24 kilometres per hour, with a mean of 14.10 and a median of 13.98. The busiest band is 13.5 to 14.0 kilometres per hour, with 11 finishers.
Results
Ranks 1–50 of 50
| Rank | Runner | Time | Pace | Cat. | Placing |
|---|---|---|---|---|---|
| 1 | National Team USA | 2:54:02h | 17.24 | M23 | 1st M · 1st M23 |
| 2 | National Team USA | 2:56:04h | 17.04 | M23 | 2nd M · 2nd M23 |
| 3 | National Team ZIM | 2:56:58h | 16.95 | M35 | 3rd M · 1st M35 |
| 4 | National Team JPN | 2:57:47h | 16.87 | M23 | 4th M · 3rd M23 |
| 5 | National Team GBR | 2:58:25h | 16.82 | M35 | 5th M · 2nd M35 |
| 6 | National Team GBR | 2:59:30h | 16.71 | M23 | 6th M · 4th M23 |
| 7 | National Team GBR | 3:01:34h | 16.52 | M35 | 7th M · 3rd M35 |
| 8 | National Team GER | 3:02:38h | 16.43 | M23 | 8th M · 5th M23 |
| 9 | National Team USA | 3:06:33h | 16.08 | M23 | 9th M · 6th M23 |
| 10 | National Team NGR | 3:07:36h | 15.99 | M23 | 10th M · 7th M23 |
| 11 | National Team CAN | 3:13:32h | 15.50 | — | 11th M |
| 12 | National Team GBR | 3:13:42h | 15.49 | M35 | 12th M · 4th M35 |
| 13 | National Team USA | 3:14:49h | 15.40 | M23 | 13th M · 8th M23 |
| 14 | National Team GER | 3:18:30h | 15.11 | M35 | 14th M · 5th M35 |
| 15 | National Team USA | 3:20:00h | 15.00 | M23 | 15th M · 9th M23 |
| 16 | National Team USA | 3:21:01h | 14.92 | M23 | 16th M · 10th M23 |
| 17 | National Team KEN | 3:22:45h | 14.80 | — | 1st F |
| 18 | National Team GER | 3:25:00h | 14.63 | M23 | 17th M · 11th M23 |
| 19 | National Team GER | 3:25:53h | 14.57 | W35 | 2nd F · 1st W35 |
| 20 | National Team NED | 3:26:04h | 14.56 | M45 | 18th M · 1st M45 |
| 21 | National Team GBR | 3:26:17h | 14.54 | — | 3rd F |
| 22 | National Team DEN | 3:27:21h | 14.47 | — | 19th M |
| 23 | National Team USA | 3:29:01h | 14.35 | — | 4th F |
| 24 | National Team GBR | 3:34:08h | 14.01 | W35 | 5th F · 2nd W35 |
| 25 | National Team USA | 3:34:22h | 13.99 | W35 | 6th F · 3rd W35 |
| 26 | National Team JPN | 3:34:34h | 13.98 | M35 | 20th M · 6th M35 |
| 27 | National Team GBR | 3:35:36h | 13.91 | W35 | 7th F · 4th W35 |
| 28 | National Team GBR | 3:35:57h | 13.89 | W23 | 8th F · 1st W23 |
| 29 | National Team MGL | 3:36:29h | 13.86 | W23 | 9th F · 2nd W23 |
| 30 | National Team USA | 3:36:37h | 13.85 | — | 10th F |
| 31 | National Team DEN | 3:37:47h | 13.78 | M23 | 21st M · 12th M23 |
| 32 | National Team USA | 3:37:53h | 13.77 | W23 | 11th F · 3rd W23 |
| 33 | National Team JPN | 3:38:38h | 13.72 | M40 | 22nd M · 1st M40 |
| 34 | National Team CZE | 3:39:51h | 13.65 | W35 | 12th F · 5th W35 |
| 35 | National Team CRO | 3:40:32h | 13.60 | — | 13th F |
| 36 | National Team JPN | 3:44:39h | 13.35 | W40 | 14th F · 1st W40 |
| 37 | National Team NGR | 3:48:05h | 13.15 | — | 15th F |
| 38 | National Team TPE | 3:49:36h | 13.07 | MU23 | 23rd M · 1st MU23 |
| 39 | National Team USA | 3:52:04h | 12.93 | W40 | 16th F · 2nd W40 |
| 40 | National Team CRO | 3:53:24h | 12.85 | — | 17th F |
| 41 | National Team ARG | 3:55:19h | 12.75 | M40 | 24th M · 2nd M40 |
| 42 | National Team JPN | 3:57:55h | 12.61 | M23 | 25th M · 13th M23 |
| 43 | National Team TPE | 4:00:21h | 12.48 | M40 | 26th M · 3rd M40 |
| 44 | National Team CRO | 4:02:30h | 12.37 | W40 | 18th F · 3rd W40 |
| 45 | National Team SRB | 4:05:45h | 12.21 | M35 | 27th M · 7th M35 |
| 46 | National Team CAN | 4:07:03h | 12.14 | W23 | 19th F · 4th W23 |
| 47 | National Team JPN | 4:27:49h | 11.20 | M23 | 28th M · 14th M23 |
| 48 | National Team LAT | 4:55:01h | 10.17 | M50 | 29th M · 1st M50 |
| 49 | National Team URU | 5:26:35h | 9.19 | W23 | 20th F · 5th W23 |
| 50 | National Team URU | 5:45:53h | 8.67 | — | 21st F |
- 1National Team USA1st M · 1st M23Time2:54:02hPace17.24Cat.M23
- 2National Team USA2nd M · 2nd M23Time2:56:04hPace17.04Cat.M23
- 3National Team ZIM3rd M · 1st M35Time2:56:58hPace16.95Cat.M35
- 4National Team JPN4th M · 3rd M23Time2:57:47hPace16.87Cat.M23
- 5National Team GBR5th M · 2nd M35Time2:58:25hPace16.82Cat.M35
- 6National Team GBR6th M · 4th M23Time2:59:30hPace16.71Cat.M23
- 7National Team GBR7th M · 3rd M35Time3:01:34hPace16.52Cat.M35
- 8National Team GER8th M · 5th M23Time3:02:38hPace16.43Cat.M23
- 9National Team USA9th M · 6th M23Time3:06:33hPace16.08Cat.M23
- 10National Team NGR10th M · 7th M23Time3:07:36hPace15.99Cat.M23
- 11National Team CAN11th MTime3:13:32hPace15.50
- 12National Team GBR12th M · 4th M35Time3:13:42hPace15.49Cat.M35
- 13National Team USA13th M · 8th M23Time3:14:49hPace15.40Cat.M23
- 14National Team GER14th M · 5th M35Time3:18:30hPace15.11Cat.M35
- 15National Team USA15th M · 9th M23Time3:20:00hPace15.00Cat.M23
- 16National Team USA16th M · 10th M23Time3:21:01hPace14.92Cat.M23
- 17National Team KEN1st FTime3:22:45hPace14.80
- 18National Team GER17th M · 11th M23Time3:25:00hPace14.63Cat.M23
- 19National Team GER2nd F · 1st W35Time3:25:53hPace14.57Cat.W35
- 20National Team NED18th M · 1st M45Time3:26:04hPace14.56Cat.M45
- 21National Team GBR3rd FTime3:26:17hPace14.54
- 22National Team DEN19th MTime3:27:21hPace14.47
- 23National Team USA4th FTime3:29:01hPace14.35
- 24National Team GBR5th F · 2nd W35Time3:34:08hPace14.01Cat.W35
- 25National Team USA6th F · 3rd W35Time3:34:22hPace13.99Cat.W35
- 26National Team JPN20th M · 6th M35Time3:34:34hPace13.98Cat.M35
- 27National Team GBR7th F · 4th W35Time3:35:36hPace13.91Cat.W35
- 28National Team GBR8th F · 1st W23Time3:35:57hPace13.89Cat.W23
- 29National Team MGL9th F · 2nd W23Time3:36:29hPace13.86Cat.W23
- 30National Team USA10th FTime3:36:37hPace13.85
- 31National Team DEN21st M · 12th M23Time3:37:47hPace13.78Cat.M23
- 32National Team USA11th F · 3rd W23Time3:37:53hPace13.77Cat.W23
- 33National Team JPN22nd M · 1st M40Time3:38:38hPace13.72Cat.M40
- 34National Team CZE12th F · 5th W35Time3:39:51hPace13.65Cat.W35
- 35National Team CRO13th FTime3:40:32hPace13.60
- 36National Team JPN14th F · 1st W40Time3:44:39hPace13.35Cat.W40
- 37National Team NGR15th FTime3:48:05hPace13.15
- 38National Team TPE23rd M · 1st MU23Time3:49:36hPace13.07Cat.MU23
- 39National Team USA16th F · 2nd W40Time3:52:04hPace12.93Cat.W40
- 40National Team CRO17th FTime3:53:24hPace12.85
- 41National Team ARG24th M · 2nd M40Time3:55:19hPace12.75Cat.M40
- 42National Team JPN25th M · 13th M23Time3:57:55hPace12.61Cat.M23
- 43National Team TPE26th M · 3rd M40Time4:00:21hPace12.48Cat.M40
- 44National Team CRO18th F · 3rd W40Time4:02:30hPace12.37Cat.W40
- 45National Team SRB27th M · 7th M35Time4:05:45hPace12.21Cat.M35
- 46National Team CAN19th F · 4th W23Time4:07:03hPace12.14Cat.W23
- 47National Team JPN28th M · 14th M23Time4:27:49hPace11.20Cat.M23
- 48National Team LAT29th M · 1st M50Time4:55:01hPace10.17Cat.M50
- 49National Team URU20th F · 5th W23Time5:26:35hPace9.19Cat.W23
- 50National Team URU21st FTime5:45:53hPace8.67